Time,TemperatureF,DewpointF,PressureIn,WindDirection,WindDirectionDegrees,WindSpeedMPH,WindSpeedGustMPH,Humidity,HourlyPrecipIn,Conditions,Clouds,dailyrainin,SoftwareType,DateUTC
2013-06-25 01:44:00,66.0,65.0,29.95,West,274,0.0,0.0,97,0.00,,,0.00,,2013-06-25 05:44:00,
2013-06-25 01:52:00,66.0,65.0,29.94,West,274,0.0,2.0,97,0.00,,,0.00,,2013-06-25 05:52:00,
2013-06-25 02:01:00,66.0,65.0,29.94,West,274,0.0,0.0,97,0.00,,,0.00,,2013-06-25 06:01:00,
2013-06-25 02:43:00,66.0,65.0,29.94,WSW,247,0.0,4.0,98,0.07,,,0.07,,2013-06-25 06:43:00,
2013-06-25 02:52:00,66.0,65.0,29.95,WSW,247,0.0,1.0,98,0.08,,,0.08,,2013-06-25 06:52:00,
2013-06-25 03:02:00,66.0,65.0,29.94,WSW,247,0.0,2.0,98,0.08,,,0.08,,2013-06-25 07:02:00,
2013-06-25 03:33:00,66.0,65.0,29.93,WSW,247,0.0,2.0,98,0.08,,,0.08,,2013-06-25 07:33:00,
2013-06-25 03:52:00,67.0,66.0,29.92,WSW,247,0.0,1.0,98,0.04,,,0.12,,2013-06-25 07:52:00,
2013-06-25 04:53:00,67.0,67.0,29.92,WSW,247,0.0,0.0,99,0.00,,,0.12,,2013-06-25 08:53:00,
2013-06-25 05:43:00,68.0,68.0,29.91,WSW,247,1.0,4.0,99,0.00,,,0.12,,2013-06-25 09:43:00,
2013-06-25 06:42:00,68.0,67.0,29.93,WSW,243,0.0,8.0,98,0.00,,,0.12,,2013-06-25 10:42:00,
2013-06-25 06:52:00,68.0,67.0,29.95,WSW,243,0.0,2.0,98,0.00,,,0.12,,2013-06-25 10:52:00,
2013-06-25 10:01:00,68.0,67.0,29.93,SSE,151,0.0,1.0,98,0.04,,,0.18,,2013-06-25 14:01:00,
2013-06-25 10:34:00,69.0,69.0,29.94,SSE,151,0.0,0.0,99,0.00,,,0.18,,2013-06-25 14:34:00,
2013-06-25 11:44:00,73.0,72.0,29.92,South,172,1.0,7.0,98,0.00,,,0.18,,2013-06-25 15:44:00,
2013-06-25 13:44:00,80.0,73.0,29.91,South,188,2.0,6.0,80,0.00,,,0.18,,2013-06-25 17:44:00,
2013-06-25 13:53:00,79.0,73.0,29.88,SW,219,0.0,6.0,81,0.00,,,0.18,,2013-06-25 17:53:00,
2013-06-25 15:44:00,84.0,74.0,29.83,SSW,199,1.0,9.0,73,0.00,,,0.18,,2013-06-25 19:44:00,
2013-06-25 17:43:00,86.0,74.0,29.81,NW,320,3.0,17.0,67,0.00,,,0.18,,2013-06-25 21:43:00,
2013-06-25 17:53:00,86.0,72.0,29.80,West,274,7.0,14.0,64,0.00,,,0.18,,2013-06-25 21:53:00,
2013-06-25 19:34:00,81.0,74.0,29.79,NNW,342,0.0,4.0,79,0.00,,,0.18,,2013-06-25 23:34:00,
2013-06-25 19:44:00,81.0,74.0,29.79,NNW,342,0.0,2.0,80,0.00,,,0.18,,2013-06-25 23:44:00,
2013-06-25 19:52:00,80.0,74.0,29.78,NNW,342,0.0,2.0,81,0.00,,,0.18,,2013-06-25 23:52:00,
2013-06-25 20:02:00,80.0,74.0,29.78,North,352,0.0,4.0,81,0.00,,,0.18,,2013-06-26 00:02:00,
2013-06-25 20:11:00,80.0,74.0,29.78,North,352,0.0,2.0,82,0.00,,,0.18,,2013-06-26 00:11:00,
2013-06-25 20:22:00,79.0,73.0,29.78,North,349,2.0,6.0,83,0.00,,,0.18,,2013-06-26 00:22:00,
2013-06-25 20:33:00,79.0,74.0,29.79,WSW,251,2.0,4.0,84,0.00,,,0.18,,2013-06-26 00:33:00,
2013-06-25 20:42:00,76.0,70.0,29.79,West,261,2.0,9.0,81,0.06,,,0.24,,2013-06-26 00:42:00,
2013-06-25 20:52:00,75.0,71.0,29.78,West,263,1.0,2.0,88,0.06,,,0.24,,2013-06-26 00:52:00,
2013-06-25 21:01:00,75.0,72.0,29.78,North,359,1.0,6.0,91,0.06,,,0.24,,2013-06-26 01:01:00,
2013-06-25 21:11:00,75.0,72.0,29.78,North,353,3.0,6.0,91,0.06,,,0.24,,2013-06-26 01:11:00,
2013-06-25 21:22:00,75.0,71.0,29.78,North,360,1.0,4.0,88,0.06,,,0.24,,2013-06-26 01:22:00,
2013-06-25 21:33:00,74.0,70.0,29.79,North,360,0.0,4.0,87,0.06,,,0.24,,2013-06-26 01:33:00,
2013-06-25 22:02:00,72.0,66.0,29.82,WSW,250,6.0,13.0,81,0.00,,,0.24,,2013-06-26 02:02:00,
2013-06-25 22:43:00,68.0,66.0,29.83,West,270,0.0,8.0,92,0.09,,,0.33,,2013-06-26 02:43:00,
2013-06-25 23:02:00,67.0,65.0,29.82,West,270,0.0,0.0,94,0.10,,,0.34,,2013-06-26 03:02:00,
2013-06-25 23:43:00,67.0,66.0,29.82,West,270,0.0,0.0,96,0.02,,,0.35,,2013-06-26 03:43:00,